sensor_id;sensor_type;location;lat;lon;timestamp;P1;durP1;ratioP1;P2;durP2;ratioP2
58294;SDS011;45705;55.592;37.460;2023-02-18T00:00:13;36.13;;;15.68;;
58294;SDS011;45705;55.592;37.460;2023-02-18T00:02:41;37.85;;;17.10;;
58294;SDS011;45705;55.592;37.460;2023-02-18T00:05:08;47.20;;;19.55;;
58294;SDS011;45705;55.592;37.460;2023-02-18T00:07:34;51.50;;;19.58;;
58294;SDS011;45705;55.592;37.460;2023-02-18T00:10:02;50.60;;;20.38;;
58294;SDS011;45705;55.592;37.460;2023-02-18T00:12:29;47.00;;;19.77;;
58294;SDS011;45705;55.592;37.460;2023-02-18T00:14:55;41.05;;;17.67;;
58294;SDS011;45705;55.592;37.460;2023-02-18T00:17:21;39.92;;;15.60;;
58294;SDS011;45705;55.592;37.460;2023-02-18T00:19:47;39.85;;;17.05;;
58294;SDS011;45705;55.592;37.460;2023-02-18T00:22:12;38.72;;;16.50;;
58294;SDS011;45705;55.592;37.460;2023-02-18T00:24:38;37.08;;;15.88;;
58294;SDS011;45705;55.592;37.460;2023-02-18T00:27:04;41.10;;;16.38;;
58294;SDS011;45705;55.592;37.460;2023-02-18T00:29:30;32.38;;;14.07;;
58294;SDS011;45705;55.592;37.460;2023-02-18T00:31:56;29.42;;;12.35;;
58294;SDS011;45705;55.592;37.460;2023-02-18T00:34:22;32.90;;;14.13;;
58294;SDS011;45705;55.592;37.460;2023-02-18T00:36:48;32.10;;;14.98;;
58294;SDS011;45705;55.592;37.460;2023-02-18T00:39:14;34.38;;;15.30;;
58294;SDS011;45705;55.592;37.460;2023-02-18T00:41:40;36.35;;;15.85;;
58294;SDS011;45705;55.592;37.460;2023-02-18T00:44:06;37.63;;;15.73;;
58294;SDS011;45705;55.592;37.460;2023-02-18T00:46:33;40.28;;;15.45;;
58294;SDS011;45705;55.592;37.460;2023-02-18T00:48:59;32.25;;;15.55;;
58294;SDS011;45705;55.592;37.460;2023-02-18T00:51:26;38.67;;;17.92;;
58294;SDS011;45705;55.592;37.460;2023-02-18T00:53:52;44.42;;;17.65;;
58294;SDS011;45705;55.592;37.460;2023-02-18T00:56:18;40.30;;;17.30;;
58294;SDS011;45705;55.592;37.460;2023-02-18T00:58:45;45.58;;;19.38;;
58294;SDS011;45705;55.592;37.460;2023-02-18T01:01:11;42.80;;;18.38;;
58294;SDS011;45705;55.592;37.460;2023-02-18T01:03:40;44.45;;;20.02;;
58294;SDS011;45705;55.592;37.460;2023-02-18T01:06:07;43.60;;;17.08;;
58294;SDS011;45705;55.592;37.460;2023-02-18T01:08:33;43.63;;;19.55;;
58294;SDS011;45705;55.592;37.460;2023-02-18T01:11:00;31.08;;;14.13;;
58294;SDS011;45705;55.592;37.460;2023-02-18T01:13:26;45.38;;;17.52;;
58294;SDS011;45705;55.592;37.460;2023-02-18T01:15:52;45.38;;;19.00;;
58294;SDS011;45705;55.592;37.460;2023-02-18T01:18:18;44.70;;;17.63;;
58294;SDS011;45705;55.592;37.460;2023-02-18T01:20:44;43.20;;;16.77;;
58294;SDS011;45705;55.592;37.460;2023-02-18T01:23:11;48.35;;;17.80;;
58294;SDS011;45705;55.592;37.460;2023-02-18T01:25:38;38.60;;;17.05;;
58294;SDS011;45705;55.592;37.460;2023-02-18T01:28:04;45.05;;;18.95;;
58294;SDS011;45705;55.592;37.460;2023-02-18T01:30:31;41.28;;;19.40;;
58294;SDS011;45705;55.592;37.460;2023-02-18T01:32:57;36.92;;;16.52;;
58294;SDS011;45705;55.592;37.460;2023-02-18T01:35:23;45.53;;;18.98;;
58294;SDS011;45705;55.592;37.460;2023-02-18T01:37:49;40.47;;;17.90;;
58294;SDS011;45705;55.592;37.460;2023-02-18T01:40:17;35.22;;;15.25;;
58294;SDS011;45705;55.592;37.460;2023-02-18T01:42:45;46.80;;;18.92;;
58294;SDS011;45705;55.592;37.460;2023-02-18T01:45:38;48.83;;;15.70;;
58294;SDS011;45705;55.592;37.460;2023-02-18T01:56:26;35.88;;;16.88;;
58294;SDS011;45705;55.592;37.460;2023-02-18T01:58:59;29.58;;;13.05;;
58294;SDS011;45705;55.592;37.460;2023-02-18T02:01:27;42.95;;;18.58;;
58294;SDS011;45705;55.592;37.460;2023-02-18T02:03:55;27.80;;;12.60;;
58294;SDS011;45705;55.592;37.460;2023-02-18T02:06:21;34.33;;;14.75;;
58294;SDS011;45705;55.592;37.460;2023-02-18T02:08:49;31.17;;;13.27;;
58294;SDS011;45705;55.592;37.460;2023-02-18T02:21:47;33.72;;;13.30;;
58294;SDS011;45705;55.592;37.460;2023-02-18T02:27:28;31.23;;;14.10;;
58294;SDS011;45705;55.592;37.460;2023-02-18T02:40:51;33.97;;;14.55;;
58294;SDS011;45705;55.592;37.460;2023-02-18T02:46:08;36.42;;;15.10;;
58294;SDS011;45705;55.592;37.460;2023-02-18T02:48:45;40.38;;;15.65;;
58294;SDS011;45705;55.592;37.460;2023-02-18T02:51:32;33.55;;;14.93;;
58294;SDS011;45705;55.592;37.460;2023-02-18T02:57:47;31.40;;;13.98;;
58294;SDS011;45705;55.592;37.460;2023-02-18T02:59:57;31.50;;;14.48;;
58294;SDS011;45705;55.592;37.460;2023-02-18T03:15:56;40.40;;;17.13;;
58294;SDS011;45705;55.592;37.460;2023-02-18T03:19:09;41.78;;;16.27;;
58294;SDS011;45705;55.592;37.460;2023-02-18T03:21:44;42.50;;;15.43;;
58294;SDS011;45705;55.592;37.460;2023-02-18T03:24:23;34.28;;;14.23;;
58294;SDS011;45705;55.592;37.460;2023-02-18T03:27:08;43.00;;;16.73;;
58294;SDS011;45705;55.592;37.460;2023-02-18T03:29:38;40.38;;;17.58;;
58294;SDS011;45705;55.592;37.460;2023-02-18T03:32:06;33.90;;;14.80;;
58294;SDS011;45705;55.592;37.460;2023-02-18T03:34:38;37.00;;;13.82;;
58294;SDS011;45705;55.592;37.460;2023-02-18T03:37:08;30.80;;;13.98;;
58294;SDS011;45705;55.592;37.460;2023-02-18T03:39:36;43.50;;;16.80;;
58294;SDS011;45705;55.592;37.460;2023-02-18T03:42:06;40.22;;;18.77;;
58294;SDS011;45705;55.592;37.460;2023-02-18T03:44:32;38.25;;;14.75;;
58294;SDS011;45705;55.592;37.460;2023-02-18T03:46:58;46.15;;;17.63;;
58294;SDS011;45705;55.592;37.460;2023-02-18T03:49:23;50.13;;;19.58;;
58294;SDS011;45705;55.592;37.460;2023-02-18T03:51:49;62.75;;;22.08;;
58294;SDS011;45705;55.592;37.460;2023-02-18T03:54:15;50.47;;;19.63;;
58294;SDS011;45705;55.592;37.460;2023-02-18T03:56:41;55.70;;;22.88;;
58294;SDS011;45705;55.592;37.460;2023-02-18T03:59:07;61.30;;;23.50;;
58294;SDS011;45705;55.592;37.460;2023-02-18T04:01:33;65.15;;;23.73;;
58294;SDS011;45705;55.592;37.460;2023-02-18T04:04:00;51.22;;;20.65;;
58294;SDS011;45705;55.592;37.460;2023-02-18T04:06:27;53.38;;;22.17;;
58294;SDS011;45705;55.592;37.460;2023-02-18T04:08:53;71.40;;;25.52;;
58294;SDS011;45705;55.592;37.460;2023-02-18T04:11:19;61.63;;;25.50;;
58294;SDS011;45705;55.592;37.460;2023-02-18T04:13:45;68.10;;;24.80;;
58294;SDS011;45705;55.592;37.460;2023-02-18T04:16:10;61.80;;;23.98;;
58294;SDS011;45705;55.592;37.460;2023-02-18T04:18:36;54.60;;;22.48;;
58294;SDS011;45705;55.592;37.460;2023-02-18T04:21:02;58.00;;;22.38;;
58294;SDS011;45705;55.592;37.460;2023-02-18T04:23:28;62.40;;;23.25;;
58294;SDS011;45705;55.592;37.460;2023-02-18T04:25:54;51.58;;;20.55;;
58294;SDS011;45705;55.592;37.460;2023-02-18T04:28:19;64.03;;;23.52;;
58294;SDS011;45705;55.592;37.460;2023-02-18T04:30:45;39.50;;;17.40;;
58294;SDS011;45705;55.592;37.460;2023-02-18T04:33:11;45.20;;;17.35;;
58294;SDS011;45705;55.592;37.460;2023-02-18T04:35:37;44.42;;;18.25;;
58294;SDS011;45705;55.592;37.460;2023-02-18T04:38:06;41.72;;;17.58;;
58294;SDS011;45705;55.592;37.460;2023-02-18T04:40:32;47.85;;;19.58;;
58294;SDS011;45705;55.592;37.460;2023-02-18T04:42:58;52.45;;;20.45;;
58294;SDS011;45705;55.592;37.460;2023-02-18T04:45:24;41.53;;;16.08;;
58294;SDS011;45705;55.592;37.460;2023-02-18T04:47:50;39.20;;;16.70;;
58294;SDS011;45705;55.592;37.460;2023-02-18T04:50:16;34.35;;;16.83;;
58294;SDS011;45705;55.592;37.460;2023-02-18T04:52:42;46.35;;;18.70;;
58294;SDS011;45705;55.592;37.460;2023-02-18T04:55:08;48.47;;;18.95;;
58294;SDS011;45705;55.592;37.460;2023-02-18T04:57:34;39.40;;;17.63;;
58294;SDS011;45705;55.592;37.460;2023-02-18T04:59:59;37.78;;;18.15;;
58294;SDS011;45705;55.592;37.460;2023-02-18T05:02:25;46.78;;;20.02;;
58294;SDS011;45705;55.592;37.460;2023-02-18T05:04:51;53.67;;;21.80;;
58294;SDS011;45705;55.592;37.460;2023-02-18T05:07:17;50.30;;;21.92;;
58294;SDS011;45705;55.592;37.460;2023-02-18T05:09:43;48.30;;;21.08;;
58294;SDS011;45705;55.592;37.460;2023-02-18T05:12:08;29.08;;;13.73;;
58294;SDS011;45705;55.592;37.460;2023-02-18T05:14:34;43.60;;;17.50;;
58294;SDS011;45705;55.592;37.460;2023-02-18T05:17:00;46.90;;;19.08;;
58294;SDS011;45705;55.592;37.460;2023-02-18T05:19:25;34.85;;;16.48;;
58294;SDS011;45705;55.592;37.460;2023-02-18T05:21:51;36.78;;;17.05;;
58294;SDS011;45705;55.592;37.460;2023-02-18T05:24:17;38.83;;;16.80;;
58294;SDS011;45705;55.592;37.460;2023-02-18T05:26:42;41.60;;;20.42;;
58294;SDS011;45705;55.592;37.460;2023-02-18T05:29:08;40.97;;;17.83;;
58294;SDS011;45705;55.592;37.460;2023-02-18T05:31:34;42.58;;;19.40;;
58294;SDS011;45705;55.592;37.460;2023-02-18T05:33:59;43.13;;;18.90;;
58294;SDS011;45705;55.592;37.460;2023-02-18T05:36:25;41.92;;;18.33;;
58294;SDS011;45705;55.592;37.460;2023-02-18T05:38:51;42.17;;;17.80;;
58294;SDS011;45705;55.592;37.460;2023-02-18T05:41:16;43.65;;;20.90;;
58294;SDS011;45705;55.592;37.460;2023-02-18T05:43:42;25.38;;;12.15;;
58294;SDS011;45705;55.592;37.460;2023-02-18T05:46:26;46.13;;;19.75;;
58294;SDS011;45705;55.592;37.460;2023-02-18T05:48:52;40.58;;;18.73;;
58294;SDS011;45705;55.592;37.460;2023-02-18T05:51:18;37.60;;;16.40;;
58294;SDS011;45705;55.592;37.460;2023-02-18T05:53:44;46.55;;;19.05;;
58294;SDS011;45705;55.592;37.460;2023-02-18T05:56:09;33.90;;;15.32;;
58294;SDS011;45705;55.592;37.460;2023-02-18T05:58:35;40.42;;;16.92;;
58294;SDS011;45705;55.592;37.460;2023-02-18T06:01:01;40.38;;;17.48;;
58294;SDS011;45705;55.592;37.460;2023-02-18T06:03:26;34.67;;;16.15;;
58294;SDS011;45705;55.592;37.460;2023-02-18T06:05:52;35.85;;;15.38;;
58294;SDS011;45705;55.592;37.460;2023-02-18T06:08:18;46.13;;;19.65;;
58294;SDS011;45705;55.592;37.460;2023-02-18T06:10:46;44.53;;;20.05;;
58294;SDS011;45705;55.592;37.460;2023-02-18T06:13:12;40.47;;;17.17;;
58294;SDS011;45705;55.592;37.460;2023-02-18T06:15:38;40.08;;;16.42;;
58294;SDS011;45705;55.592;37.460;2023-02-18T06:18:04;40.30;;;18.08;;
58294;SDS011;45705;55.592;37.460;2023-02-18T06:20:31;42.72;;;19.98;;
58294;SDS011;45705;55.592;37.460;2023-02-18T06:22:57;46.25;;;20.05;;
58294;SDS011;45705;55.592;37.460;2023-02-18T06:25:23;44.65;;;17.58;;
58294;SDS011;45705;55.592;37.460;2023-02-18T06:27:48;41.78;;;18.02;;
58294;SDS011;45705;55.592;37.460;2023-02-18T06:30:14;43.80;;;18.92;;
58294;SDS011;45705;55.592;37.460;2023-02-18T06:32:40;38.45;;;18.80;;
58294;SDS011;45705;55.592;37.460;2023-02-18T06:35:06;35.83;;;17.30;;
58294;SDS011;45705;55.592;37.460;2023-02-18T06:37:32;35.60;;;17.40;;
58294;SDS011;45705;55.592;37.460;2023-02-18T06:39:58;42.03;;;18.58;;
58294;SDS011;45705;55.592;37.460;2023-02-18T06:42:23;38.10;;;18.02;;
58294;SDS011;45705;55.592;37.460;2023-02-18T06:44:49;41.15;;;17.92;;
58294;SDS011;45705;55.592;37.460;2023-02-18T06:47:15;48.28;;;20.88;;
58294;SDS011;45705;55.592;37.460;2023-02-18T06:49:40;32.70;;;15.82;;
58294;SDS011;45705;55.592;37.460;2023-02-18T06:52:06;36.47;;;17.58;;
58294;SDS011;45705;55.592;37.460;2023-02-18T06:54:32;34.50;;;15.88;;
58294;SDS011;45705;55.592;37.460;2023-02-18T06:56:58;38.67;;;17.10;;
58294;SDS011;45705;55.592;37.460;2023-02-18T06:59:24;39.15;;;16.27;;
58294;SDS011;45705;55.592;37.460;2023-02-18T07:01:50;54.33;;;22.63;;
58294;SDS011;45705;55.592;37.460;2023-02-18T07:04:16;44.72;;;18.15;;
58294;SDS011;45705;55.592;37.460;2023-02-18T07:06:41;37.47;;;17.52;;
58294;SDS011;45705;55.592;37.460;2023-02-18T07:09:07;46.85;;;19.45;;
58294;SDS011;45705;55.592;37.460;2023-02-18T07:11:33;49.17;;;19.50;;
58294;SDS011;45705;55.592;37.460;2023-02-18T07:13:59;48.15;;;20.00;;
58294;SDS011;45705;55.592;37.460;2023-02-18T07:16:25;40.38;;;16.70;;
58294;SDS011;45705;55.592;37.460;2023-02-18T07:18:50;43.17;;;17.25;;
58294;SDS011;45705;55.592;37.460;2023-02-18T07:21:16;36.35;;;15.73;;
58294;SDS011;45705;55.592;37.460;2023-02-18T07:23:42;34.65;;;16.40;;
58294;SDS011;45705;55.592;37.460;2023-02-18T07:26:09;27.73;;;13.73;;
58294;SDS011;45705;55.592;37.460;2023-02-18T07:28:36;36.63;;;14.65;;
58294;SDS011;45705;55.592;37.460;2023-02-18T07:31:02;35.88;;;14.30;;
58294;SDS011;45705;55.592;37.460;2023-02-18T07:33:29;25.20;;;11.82;;
58294;SDS011;45705;55.592;37.460;2023-02-18T07:35:55;26.45;;;13.20;;
58294;SDS011;45705;55.592;37.460;2023-02-18T07:38:22;24.48;;;11.80;;
58294;SDS011;45705;55.592;37.460;2023-02-18T07:40:49;23.80;;;11.10;;
58294;SDS011;45705;55.592;37.460;2023-02-18T07:43:15;27.13;;;14.30;;
58294;SDS011;45705;55.592;37.460;2023-02-18T07:45:41;28.55;;;13.15;;
58294;SDS011;45705;55.592;37.460;2023-02-18T07:48:08;30.13;;;14.00;;
58294;SDS011;45705;55.592;37.460;2023-02-18T07:50:34;27.25;;;10.98;;
58294;SDS011;45705;55.592;37.460;2023-02-18T07:53:01;23.98;;;11.43;;
58294;SDS011;45705;55.592;37.460;2023-02-18T07:55:30;26.00;;;11.38;;
58294;SDS011;45705;55.592;37.460;2023-02-18T07:58:15;24.73;;;13.05;;
58294;SDS011;45705;55.592;37.460;2023-02-18T08:00:42;17.67;;;8.90;;
58294;SDS011;45705;55.592;37.460;2023-02-18T08:03:09;21.65;;;9.65;;
58294;SDS011;45705;55.592;37.460;2023-02-18T08:05:35;26.00;;;13.18;;
58294;SDS011;45705;55.592;37.460;2023-02-18T08:08:01;21.67;;;10.70;;
58294;SDS011;45705;55.592;37.460;2023-02-18T08:10:26;22.98;;;11.30;;
58294;SDS011;45705;55.592;37.460;2023-02-18T08:12:52;19.85;;;7.93;;
58294;SDS011;45705;55.592;37.460;2023-02-18T08:15:18;22.08;;;11.25;;
58294;SDS011;45705;55.592;37.460;2023-02-18T08:17:43;21.52;;;9.82;;
58294;SDS011;45705;55.592;37.460;2023-02-18T08:20:09;21.25;;;11.25;;
58294;SDS011;45705;55.592;37.460;2023-02-18T08:22:35;22.83;;;10.80;;
58294;SDS011;45705;55.592;37.460;2023-02-18T08:25:01;15.40;;;7.40;;
58294;SDS011;45705;55.592;37.460;2023-02-18T08:27:29;17.48;;;9.30;;
58294;SDS011;45705;55.592;37.460;2023-02-18T08:29:55;12.23;;;7.03;;
58294;SDS011;45705;55.592;37.460;2023-02-18T08:32:20;14.13;;;8.35;;
58294;SDS011;45705;55.592;37.460;2023-02-18T08:34:46;19.80;;;10.10;;
58294;SDS011;45705;55.592;37.460;2023-02-18T08:37:12;20.95;;;9.60;;
58294;SDS011;45705;55.592;37.460;2023-02-18T08:39:38;17.08;;;7.95;;
58294;SDS011;45705;55.592;37.460;2023-02-18T08:42:04;16.73;;;8.55;;
58294;SDS011;45705;55.592;37.460;2023-02-18T08:44:30;20.90;;;8.07;;
58294;SDS011;45705;55.592;37.460;2023-02-18T08:46:55;19.75;;;8.70;;
58294;SDS011;45705;55.592;37.460;2023-02-18T08:49:21;15.57;;;7.35;;
58294;SDS011;45705;55.592;37.460;2023-02-18T08:51:51;19.27;;;9.95;;
58294;SDS011;45705;55.592;37.460;2023-02-18T08:54:17;17.40;;;8.93;;
58294;SDS011;45705;55.592;37.460;2023-02-18T08:56:43;14.38;;;7.20;;
58294;SDS011;45705;55.592;37.460;2023-02-18T08:59:09;18.65;;;7.45;;
58294;SDS011;45705;55.592;37.460;2023-02-18T09:01:35;14.40;;;8.02;;
58294;SDS011;45705;55.592;37.460;2023-02-18T09:04:01;12.48;;;6.80;;
58294;SDS011;45705;55.592;37.460;2023-02-18T09:06:26;14.52;;;7.15;;
58294;SDS011;45705;55.592;37.460;2023-02-18T09:08:52;14.00;;;7.72;;
58294;SDS011;45705;55.592;37.460;2023-02-18T09:11:18;15.48;;;8.07;;
58294;SDS011;45705;55.592;37.460;2023-02-18T09:13:44;19.38;;;9.90;;
58294;SDS011;45705;55.592;37.460;2023-02-18T09:16:11;12.82;;;6.22;;
58294;SDS011;45705;55.592;37.460;2023-02-18T09:18:38;13.80;;;7.28;;
58294;SDS011;45705;55.592;37.460;2023-02-18T09:21:05;15.27;;;8.40;;
58294;SDS011;45705;55.592;37.460;2023-02-18T09:23:33;15.75;;;7.43;;
58294;SDS011;45705;55.592;37.460;2023-02-18T09:26:02;12.13;;;6.35;;
58294;SDS011;45705;55.592;37.460;2023-02-18T09:28:33;14.95;;;7.18;;
58294;SDS011;45705;55.592;37.460;2023-02-18T09:31:03;19.67;;;10.00;;
58294;SDS011;45705;55.592;37.460;2023-02-18T09:33:41;17.08;;;8.35;;
58294;SDS011;45705;55.592;37.460;2023-02-18T09:36:09;15.60;;;8.30;;
58294;SDS011;45705;55.592;37.460;2023-02-18T09:38:34;8.82;;;5.47;;
58294;SDS011;45705;55.592;37.460;2023-02-18T09:41:01;14.82;;;7.35;;
58294;SDS011;45705;55.592;37.460;2023-02-18T09:45:58;15.77;;;8.13;;
58294;SDS011;45705;55.592;37.460;2023-02-18T09:48:26;15.55;;;8.55;;
58294;SDS011;45705;55.592;37.460;2023-02-18T09:50:55;13.32;;;5.85;;
58294;SDS011;45705;55.592;37.460;2023-02-18T09:53:22;15.82;;;8.30;;
58294;SDS011;45705;55.592;37.460;2023-02-18T09:55:50;16.33;;;8.45;;
58294;SDS011;45705;55.592;37.460;2023-02-18T09:58:28;17.90;;;8.40;;
58294;SDS011;45705;55.592;37.460;2023-02-18T10:01:03;17.00;;;9.27;;
58294;SDS011;45705;55.592;37.460;2023-02-18T10:03:31;22.00;;;11.23;;
58294;SDS011;45705;55.592;37.460;2023-02-18T10:08:35;18.13;;;9.15;;
58294;SDS011;45705;55.592;37.460;2023-02-18T10:11:08;15.65;;;7.60;;
58294;SDS011;45705;55.592;37.460;2023-02-18T10:13:41;18.38;;;9.10;;
58294;SDS011;45705;55.592;37.460;2023-02-18T10:16:08;17.63;;;9.85;;
58294;SDS011;45705;55.592;37.460;2023-02-18T10:18:41;16.45;;;9.60;;
58294;SDS011;45705;55.592;37.460;2023-02-18T10:21:18;12.85;;;7.68;;
58294;SDS011;45705;55.592;37.460;2023-02-18T10:26:35;21.42;;;10.10;;
58294;SDS011;45705;55.592;37.460;2023-02-18T10:29:02;18.42;;;10.18;;
58294;SDS011;45705;55.592;37.460;2023-02-18T10:31:35;19.10;;;8.57;;
58294;SDS011;45705;55.592;37.460;2023-02-18T10:34:15;21.42;;;9.50;;
58294;SDS011;45705;55.592;37.460;2023-02-18T10:36:46;24.00;;;11.88;;
58294;SDS011;45705;55.592;37.460;2023-02-18T10:47:34;20.60;;;8.70;;
58294;SDS011;45705;55.592;37.460;2023-02-18T10:50:22;22.98;;;8.98;;
58294;SDS011;45705;55.592;37.460;2023-02-18T10:52:54;20.65;;;8.90;;
58294;SDS011;45705;55.592;37.460;2023-02-18T10:55:33;33.03;;;10.82;;
58294;SDS011;45705;55.592;37.460;2023-02-18T10:58:01;22.02;;;8.77;;
58294;SDS011;45705;55.592;37.460;2023-02-18T11:00:32;21.00;;;9.30;;
58294;SDS011;45705;55.592;37.460;2023-02-18T11:03:08;22.45;;;12.00;;
58294;SDS011;45705;55.592;37.460;2023-02-18T11:05:39;24.27;;;10.10;;
58294;SDS011;45705;55.592;37.460;2023-02-18T11:08:06;25.55;;;11.65;;
58294;SDS011;45705;55.592;37.460;2023-02-18T11:10:37;17.10;;;9.75;;
58294;SDS011;45705;55.592;37.460;2023-02-18T11:13:06;21.15;;;10.45;;
58294;SDS011;45705;55.592;37.460;2023-02-18T11:15:35;17.30;;;9.25;;
58294;SDS011;45705;55.592;37.460;2023-02-18T11:18:43;24.25;;;11.65;;
58294;SDS011;45705;55.592;37.460;2023-02-18T11:20:57;19.90;;;8.75;;
58294;SDS011;45705;55.592;37.460;2023-02-18T11:23:24;22.45;;;11.30;;
58294;SDS011;45705;55.592;37.460;2023-02-18T11:26:06;19.58;;;9.60;;
58294;SDS011;45705;55.592;37.460;2023-02-18T11:28:41;21.25;;;10.80;;
58294;SDS011;45705;55.592;37.460;2023-02-18T11:31:14;16.08;;;8.18;;
58294;SDS011;45705;55.592;37.460;2023-02-18T11:33:47;17.30;;;7.70;;
58294;SDS011;45705;55.592;37.460;2023-02-18T11:41:20;19.70;;;9.52;;
58294;SDS011;45705;55.592;37.460;2023-02-18T11:43:54;13.68;;;7.88;;
58294;SDS011;45705;55.592;37.460;2023-02-18T11:46:21;22.27;;;9.82;;
58294;SDS011;45705;55.592;37.460;2023-02-18T11:48:49;18.13;;;9.57;;
58294;SDS011;45705;55.592;37.460;2023-02-18T11:51:23;16.17;;;8.18;;
58294;SDS011;45705;55.592;37.460;2023-02-18T11:56:34;21.30;;;10.25;;
58294;SDS011;45705;55.592;37.460;2023-02-18T11:59:01;16.38;;;8.45;;
58294;SDS011;45705;55.592;37.460;2023-02-18T12:04:22;14.63;;;8.00;;
58294;SDS011;45705;55.592;37.460;2023-02-18T12:07:05;22.38;;;10.55;;
58294;SDS011;45705;55.592;37.460;2023-02-18T12:09:42;15.82;;;7.22;;
58294;SDS011;45705;55.592;37.460;2023-02-18T12:15:31;14.15;;;7.63;;
58294;SDS011;45705;55.592;37.460;2023-02-18T12:36:44;15.07;;;6.97;;
58294;SDS011;45705;55.592;37.460;2023-02-18T12:42:26;19.13;;;9.02;;
58294;SDS011;45705;55.592;37.460;2023-02-18T12:52:56;16.48;;;9.02;;
58294;SDS011;45705;55.592;37.460;2023-02-18T13:03:49;21.75;;;10.02;;
58294;SDS011;45705;55.592;37.460;2023-02-18T13:15:04;16.15;;;8.77;;
58294;SDS011;45705;55.592;37.460;2023-02-18T13:17:45;14.95;;;7.50;;
58294;SDS011;45705;55.592;37.460;2023-02-18T13:20:17;23.27;;;8.07;;
58294;SDS011;45705;55.592;37.460;2023-02-18T13:23:18;17.80;;;8.90;;
58294;SDS011;45705;55.592;37.460;2023-02-18T13:25:48;12.80;;;6.78;;
58294;SDS011;45705;55.592;37.460;2023-02-18T13:28:25;11.30;;;5.97;;
58294;SDS011;45705;55.592;37.460;2023-02-18T13:34:07;12.55;;;6.40;;
58294;SDS011;45705;55.592;37.460;2023-02-18T13:39:16;11.20;;;7.03;;
58294;SDS011;45705;55.592;37.460;2023-02-18T13:41:46;11.05;;;5.15;;
58294;SDS011;45705;55.592;37.460;2023-02-18T13:46:52;12.52;;;5.47;;
58294;SDS011;45705;55.592;37.460;2023-02-18T13:51:56;12.65;;;6.45;;
58294;SDS011;45705;55.592;37.460;2023-02-18T13:54:27;10.27;;;5.90;;
58294;SDS011;45705;55.592;37.460;2023-02-18T13:57:02;11.52;;;6.30;;
58294;SDS011;45705;55.592;37.460;2023-02-18T14:00:18;12.63;;;6.63;;
58294;SDS011;45705;55.592;37.460;2023-02-18T14:02:58;13.32;;;6.85;;
58294;SDS011;45705;55.592;37.460;2023-02-18T14:05:37;13.63;;;7.95;;
58294;SDS011;45705;55.592;37.460;2023-02-18T14:10:37;9.55;;;5.63;;
58294;SDS011;45705;55.592;37.460;2023-02-18T14:16:05;10.68;;;5.28;;
58294;SDS011;45705;55.592;37.460;2023-02-18T14:18:55;14.68;;;7.60;;
58294;SDS011;45705;55.592;37.460;2023-02-18T14:21:40;14.93;;;6.63;;
58294;SDS011;45705;55.592;37.460;2023-02-18T14:24:08;13.57;;;7.72;;
58294;SDS011;45705;55.592;37.460;2023-02-18T14:26:36;14.23;;;7.80;;
58294;SDS011;45705;55.592;37.460;2023-02-18T14:29:14;16.08;;;7.65;;
58294;SDS011;45705;55.592;37.460;2023-02-18T14:32:30;16.50;;;8.55;;
58294;SDS011;45705;55.592;37.460;2023-02-18T14:34:52;13.95;;;7.15;;
58294;SDS011;45705;55.592;37.460;2023-02-18T14:40:26;17.15;;;8.32;;
58294;SDS011;45705;55.592;37.460;2023-02-18T14:50:56;10.65;;;6.15;;
58294;SDS011;45705;55.592;37.460;2023-02-18T14:53:24;13.38;;;6.60;;
58294;SDS011;45705;55.592;37.460;2023-02-18T14:55:57;9.52;;;5.57;;
58294;SDS011;45705;55.592;37.460;2023-02-18T14:58:30;12.85;;;6.55;;
58294;SDS011;45705;55.592;37.460;2023-02-18T15:01:21;14.25;;;6.32;;
58294;SDS011;45705;55.592;37.460;2023-02-18T15:03:49;10.55;;;5.65;;
58294;SDS011;45705;55.592;37.460;2023-02-18T15:06:32;11.35;;;6.50;;
58294;SDS011;45705;55.592;37.460;2023-02-18T15:09:21;12.05;;;6.78;;
58294;SDS011;45705;55.592;37.460;2023-02-18T15:11:48;12.85;;;6.70;;
58294;SDS011;45705;55.592;37.460;2023-02-18T15:14:29;14.82;;;7.07;;
58294;SDS011;45705;55.592;37.460;2023-02-18T15:16:58;14.65;;;7.65;;
58294;SDS011;45705;55.592;37.460;2023-02-18T15:19:26;16.30;;;8.23;;
58294;SDS011;45705;55.592;37.460;2023-02-18T15:21:55;13.05;;;6.95;;
58294;SDS011;45705;55.592;37.460;2023-02-18T15:24:31;14.57;;;7.20;;
58294;SDS011;45705;55.592;37.460;2023-02-18T15:27:00;13.27;;;7.22;;
58294;SDS011;45705;55.592;37.460;2023-02-18T15:29:30;14.25;;;7.10;;
58294;SDS011;45705;55.592;37.460;2023-02-18T15:31:58;10.90;;;5.70;;
58294;SDS011;45705;55.592;37.460;2023-02-18T15:34:30;9.30;;;5.45;;
58294;SDS011;45705;55.592;37.460;2023-02-18T15:36:56;8.55;;;4.75;;
58294;SDS011;45705;55.592;37.460;2023-02-18T15:39:23;10.23;;;5.20;;
58294;SDS011;45705;55.592;37.460;2023-02-18T15:41:55;12.05;;;6.90;;
58294;SDS011;45705;55.592;37.460;2023-02-18T15:44:26;13.48;;;6.38;;
58294;SDS011;45705;55.592;37.460;2023-02-18T15:46:53;9.20;;;5.15;;
58294;SDS011;45705;55.592;37.460;2023-02-18T15:49:20;10.93;;;5.65;;
58294;SDS011;45705;55.592;37.460;2023-02-18T15:51:48;14.02;;;6.10;;
58294;SDS011;45705;55.592;37.460;2023-02-18T15:54:18;8.93;;;5.22;;
58294;SDS011;45705;55.592;37.460;2023-02-18T15:56:48;11.27;;;6.13;;
58294;SDS011;45705;55.592;37.460;2023-02-18T15:59:17;8.43;;;4.97;;
58294;SDS011;45705;55.592;37.460;2023-02-18T16:04:15;10.68;;;5.70;;
58294;SDS011;45705;55.592;37.460;2023-02-18T16:06:45;8.65;;;4.00;;
58294;SDS011;45705;55.592;37.460;2023-02-18T16:11:54;10.48;;;6.05;;
58294;SDS011;45705;55.592;37.460;2023-02-18T16:17:26;11.27;;;5.55;;
58294;SDS011;45705;55.592;37.460;2023-02-18T16:25:23;12.70;;;6.70;;
58294;SDS011;45705;55.592;37.460;2023-02-18T16:30:23;11.80;;;6.15;;
58294;SDS011;45705;55.592;37.460;2023-02-18T16:32:51;12.13;;;5.40;;
58294;SDS011;45705;55.592;37.460;2023-02-18T16:35:19;10.32;;;5.40;;
58294;SDS011;45705;55.592;37.460;2023-02-18T16:37:45;7.82;;;4.63;;
58294;SDS011;45705;55.592;37.460;2023-02-18T16:43:22;12.18;;;6.45;;
58294;SDS011;45705;55.592;37.460;2023-02-18T16:45:51;10.95;;;4.88;;
58294;SDS011;45705;55.592;37.460;2023-02-18T16:48:38;11.60;;;7.20;;
58294;SDS011;45705;55.592;37.460;2023-02-18T16:51:10;15.10;;;6.22;;
58294;SDS011;45705;55.592;37.460;2023-02-18T16:53:48;12.50;;;5.72;;
58294;SDS011;45705;55.592;37.460;2023-02-18T16:56:14;10.70;;;5.80;;
58294;SDS011;45705;55.592;37.460;2023-02-18T16:58:42;11.50;;;5.57;;
58294;SDS011;45705;55.592;37.460;2023-02-18T17:01:50;11.82;;;5.93;;
58294;SDS011;45705;55.592;37.460;2023-02-18T17:04:01;12.27;;;6.35;;
58294;SDS011;45705;55.592;37.460;2023-02-18T17:06:27;16.35;;;7.07;;
58294;SDS011;45705;55.592;37.460;2023-02-18T17:08:53;16.17;;;7.10;;
58294;SDS011;45705;55.592;37.460;2023-02-18T17:11:21;8.20;;;4.70;;
58294;SDS011;45705;55.592;37.460;2023-02-18T17:13:54;10.85;;;5.82;;
58294;SDS011;45705;55.592;37.460;2023-02-18T17:16:22;12.25;;;6.35;;
58294;SDS011;45705;55.592;37.460;2023-02-18T17:18:48;14.80;;;6.22;;
58294;SDS011;45705;55.592;37.460;2023-02-18T17:21:15;11.27;;;5.93;;